Time;durP1;ratioP1;P1;durP2;ratioP2;P2;SDS_P1;SDS_P2;PMS_P1;PMS_P2;Temp;Humidity;BMP_temperature;BMP_pressure;BME280_temperature;BME280_humidity;BME280_pressure;Samples;Min_cycle;Max_cycle;Signal;HPM_P1;HPM_P2
2022/12/21 00:02:15;;;;;;;20.33;15.90;;;11.40;99.90;;;;;;5036876;28;20173;-85
2022/12/21 00:04:43;;;;;;;18.30;14.40;;;11.30;99.90;;;;;;5034054;28;20185;-83
2022/12/21 00:07:11;;;;;;;20.37;14.37;;;11.30;99.90;;;;;;5034238;28;20166;-84
2022/12/21 00:09:37;;;;;;;19.13;12.67;;;11.40;99.90;;;;;;5035273;28;20225;-83
2022/12/21 00:12:03;;;;;;;20.43;14.40;;;11.40;99.90;;;;;;5034531;28;20662;-84
2022/12/21 00:14:28;;;;;;;17.13;12.87;;;11.40;99.90;;;;;;5034532;28;20216;-83
2022/12/21 00:16:54;;;;;;;16.20;12.27;;;11.50;99.90;;;;;;5035580;28;20176;-84
2022/12/21 00:19:20;;;;;;;14.17;12.43;;;11.30;99.90;;;;;;5037777;28;20166;-84
2022/12/21 00:21:45;;;;;;;14.73;11.53;;;11.20;99.90;;;;;;5039560;28;20173;-83
2022/12/21 00:24:11;;;;;;;17.40;11.53;;;11.20;99.90;;;;;;5046243;28;20177;-85
2022/12/21 00:26:37;;;;;;;18.53;13.03;;;11.20;99.90;;;;;;5037456;28;20188;-83
2022/12/21 00:29:04;;;;;;;19.20;12.90;;;11.10;99.90;;;;;;5035388;28;20181;-83
2022/12/21 00:31:33;;;;;;;16.00;12.60;;;11.50;99.90;;;;;;5034404;28;20209;-84
2022/12/21 00:34:00;;;;;;;14.07;11.80;;;11.50;99.90;;;;;;5034320;28;20217;-82
2022/12/21 00:36:29;;;;;;;16.33;12.17;;;11.50;99.90;;;;;;5053242;28;20181;-83
2022/12/21 00:38:56;;;;;;;17.13;12.57;;;11.60;99.90;;;;;;5039357;28;20239;-83
2022/12/21 00:41:23;;;;;;;16.33;12.57;;;11.60;99.90;;;;;;5036652;28;20996;-84
2022/12/21 00:43:51;;;;;;;17.33;13.00;;;11.70;99.90;;;;;;5035561;28;20182;-84
2022/12/21 00:46:20;;;;;;;17.33;13.13;;;11.80;99.90;;;;;;5034037;28;20185;-83
2022/12/21 00:48:47;;;;;;;16.77;13.47;;;11.80;99.90;;;;;;5034349;28;20198;-84
2022/12/21 00:51:16;;;;;;;16.93;13.23;;;11.70;99.90;;;;;;5035570;28;20201;-83
2022/12/21 00:53:42;;;;;;;15.77;12.87;;;11.50;99.90;;;;;;5036183;28;20190;-84
2022/12/21 00:56:14;;;;;;;19.23;13.33;;;11.40;99.90;;;;;;5037960;28;20890;-83
2022/12/21 00:58:40;;;;;;;16.03;12.10;;;11.30;99.90;;;;;;5039865;28;20173;-83
2022/12/21 01:01:10;;;;;;;18.13;12.97;;;11.30;99.90;;;;;;5038904;28;20204;-83
2022/12/21 01:03:37;;;;;;;16.47;12.10;;;11.50;99.90;;;;;;5038630;28;20197;-84
2022/12/21 01:06:03;;;;;;;16.47;12.30;;;11.50;99.90;;;;;;5037925;28;20257;-83
2022/12/21 01:08:30;;;;;;;17.27;12.43;;;11.60;99.90;;;;;;5036041;28;20175;-84
2022/12/21 01:11:01;;;;;;;18.37;13.17;;;11.70;99.90;;;;;;5036701;28;20637;-82
2022/12/21 01:13:27;;;;;;;17.57;12.97;;;11.70;99.90;;;;;;5038052;28;20232;-82
2022/12/21 01:15:53;;;;;;;17.00;12.80;;;11.90;99.90;;;;;;5041281;28;20204;-84
2022/12/21 01:18:26;;;;;;;18.20;12.83;;;11.90;99.90;;;;;;5042178;28;20181;-84
2022/12/21 01:20:54;;;;;;;19.73;13.33;;;11.90;99.90;;;;;;5057601;28;20185;-84
2022/12/21 01:23:21;;;;;;;18.57;13.47;;;11.80;99.90;;;;;;5045816;28;20200;-84
2022/12/21 01:25:51;;;;;;;17.70;14.20;;;11.70;99.90;;;;;;5038718;28;20225;-83
2022/12/21 01:28:18;;;;;;;23.87;15.10;;;11.70;99.90;;;;;;5036018;28;20178;-84
2022/12/21 01:30:45;;;;;;;20.20;16.57;;;11.60;99.90;;;;;;5035844;28;20554;-84
2022/12/21 01:33:16;;;;;;;23.13;18.00;;;11.50;99.90;;;;;;5035505;28;20201;-83
2022/12/21 01:35:43;;;;;;;25.90;19.73;;;11.50;99.90;;;;;;5053714;28;20166;-84
2022/12/21 01:38:10;;;;;;;25.80;19.90;;;11.50;99.90;;;;;;5057287;28;20201;-82
2022/12/21 01:40:36;;;;;;;24.03;19.40;;;11.20;99.90;;;;;;5060361;28;20635;-81
2022/12/21 01:46:42;;;;;;;27.17;21.27;;;11.20;99.90;;;;;;5048014;28;20169;-82
2022/12/21 01:49:30;;;;;;;37.30;25.30;;;11.20;99.90;;;;;;5039162;28;20215;-84
2022/12/21 01:52:10;;;;;;;27.67;21.27;;;11.20;99.90;;;;;;5035581;28;20170;-84
2022/12/21 01:54:48;;;;;;;27.17;20.23;;;11.20;99.90;;;;;;5053225;28;20223;-84
2022/12/21 01:57:15;;;;;;;25.73;18.83;;;11.10;99.90;;;;;;5050949;28;20179;-84
2022/12/21 01:59:46;;;;;;;25.23;18.43;;;11.00;99.90;;;;;;5044266;28;20178;-84
2022/12/21 02:02:25;;;;;;;20.37;14.83;;;11.00;99.90;;;;;;5049094;28;20666;-82
2022/12/21 02:04:52;;;;;;;26.50;18.07;;;10.90;99.90;;;;;;5045336;28;20626;-83
2022/12/21 02:07:20;;;;;;;24.27;17.57;;;10.90;99.90;;;;;;5036766;28;20181;-83
2022/12/21 02:09:50;;;;;;;27.00;19.10;;;10.80;99.90;;;;;;5035116;28;20173;-83
2022/12/21 02:12:17;;;;;;;28.13;19.57;;;10.90;99.90;;;;;;5034437;28;20191;-83
2022/12/21 02:14:46;;;;;;;28.80;19.33;;;10.90;99.90;;;;;;5034411;28;20303;-83
2022/12/21 02:17:30;;;;;;;26.03;19.50;;;11.00;99.90;;;;;;5036177;28;20169;-83
2022/12/21 02:19:58;;;;;;;29.20;18.60;;;11.00;99.90;;;;;;5056208;28;20173;-82
2022/12/21 02:22:43;;;;;;;24.43;17.23;;;11.00;99.90;;;;;;5038931;28;20657;-83
2022/12/21 02:25:29;;;;;;;27.03;18.47;;;10.90;99.90;;;;;;5055858;28;20498;-83
2022/12/21 02:28:13;;;;;;;21.27;15.30;;;10.80;99.90;;;;;;5054366;28;20184;-83
2022/12/21 02:31:32;;;;;;;27.03;16.47;;;10.60;99.90;;;;;;5054192;28;20164;-83
2022/12/21 02:34:29;;;;;;;21.53;15.17;;;10.60;99.90;;;;;;5021419;28;20266;-83
2022/12/21 02:37:04;;;;;;;19.53;13.83;;;10.40;99.90;;;;;;5053851;28;20173;-83
2022/12/21 02:39:48;;;;;;;22.10;15.57;;;10.30;99.90;;;;;;5054028;28;20183;-83
2022/12/21 02:45:58;;;;;;;23.57;14.23;;;10.60;99.90;;;;;;5054505;28;20275;-83
2022/12/21 02:48:29;;;;;;;20.77;13.77;;;10.60;99.90;;;;;;5053649;28;20176;-83
2022/12/21 02:50:59;;;;;;;23.87;13.47;;;10.60;99.90;;;;;;5053450;28;20185;-83
2022/12/21 02:53:37;;;;;;;19.17;12.97;;;10.80;99.90;;;;;;5053584;28;20291;-83
2022/12/21 02:56:03;;;;;;;16.73;11.97;;;10.90;99.90;;;;;;5053078;28;20247;-83
2022/12/21 02:58:29;;;;;;;19.30;12.47;;;10.90;99.90;;;;;;5053261;28;20288;-83
2022/12/21 03:01:15;;;;;;;15.00;11.43;;;10.90;99.90;;;;;;5054954;28;20216;-83
2022/12/21 03:03:53;;;;;;;14.70;11.43;;;10.80;99.90;;;;;;5056787;28;20562;-83
2022/12/21 03:06:47;;;;;;;13.57;10.07;;;10.80;99.90;;;;;;5062350;28;20180;-83
2022/12/21 03:09:21;;;;;;;17.43;10.83;;;10.70;99.90;;;;;;5055519;28;20178;-82
2022/12/21 03:12:10;;;;;;;17.13;11.60;;;10.60;99.90;;;;;;5053283;28;20224;-83
2022/12/21 03:14:54;;;;;;;15.67;11.17;;;10.70;99.90;;;;;;5054135;28;20262;-83
2022/12/21 03:17:22;;;;;;;16.10;11.53;;;10.80;99.90;;;;;;5053038;28;20168;-83
2022/12/21 03:20:01;;;;;;;14.03;9.63;;;10.80;99.90;;;;;;5053816;28;20196;-83
2022/12/21 03:23:06;;;;;;;14.53;9.50;;;10.70;99.90;;;;;;5054582;28;20173;-83
2022/12/21 03:25:42;;;;;;;14.87;9.30;;;10.60;99.90;;;;;;5053747;28;20559;-83
2022/12/21 03:28:15;;;;;;;15.87;10.27;;;10.60;99.90;;;;;;5052795;28;20185;-83
2022/12/21 03:30:48;;;;;;;15.23;9.63;;;10.80;99.90;;;;;;5053893;28;20172;-83
2022/12/21 03:33:19;;;;;;;12.10;9.00;;;10.70;99.90;;;;;;5052230;28;20196;-83
2022/12/21 03:35:46;;;;;;;18.53;10.53;;;10.70;99.90;;;;;;5052924;28;20182;-83
2022/12/21 03:39:02;;;;;;;16.27;10.37;;;10.80;99.90;;;;;;5052116;28;20235;-84
2022/12/21 03:41:33;;;;;;;15.83;10.87;;;10.60;99.90;;;;;;5035440;28;20196;-83
2022/12/21 03:44:03;;;;;;;17.13;11.23;;;10.60;99.90;;;;;;5052555;28;20177;-83
2022/12/21 03:46:49;;;;;;;13.80;10.17;;;10.70;99.90;;;;;;5054173;28;20179;-83
2022/12/21 03:49:22;;;;;;;16.27;11.40;;;10.70;99.90;;;;;;5052183;28;20261;-83
2022/12/21 03:51:56;;;;;;;18.73;12.07;;;10.60;99.90;;;;;;5053103;28;20192;-83
2022/12/21 03:54:42;;;;;;;19.93;12.43;;;10.70;99.90;;;;;;5053621;28;20204;-83
2022/12/21 03:57:09;;;;;;;15.70;11.87;;;10.90;99.90;;;;;;5052740;28;20648;-83
2022/12/21 03:59:40;;;;;;;14.43;11.20;;;10.80;99.90;;;;;;5070387;28;20557;-83
2022/12/21 04:02:37;;;;;;;15.97;11.80;;;10.80;99.90;;;;;;5074989;28;20149;-83
2022/12/21 04:05:25;;;;;;;19.23;11.43;;;10.80;99.90;;;;;;5067172;28;20177;-82
2022/12/21 04:07:58;;;;;;;18.67;12.07;;;10.80;99.90;;;;;;5076012;28;20189;-83
2022/12/21 04:10:26;;;;;;;16.97;11.50;;;10.80;99.90;;;;;;5065980;28;20207;-83
2022/12/21 04:12:55;;;;;;;18.63;11.33;;;10.70;99.90;;;;;;5057719;28;20185;-83
2022/12/21 04:16:03;;;;;;;16.33;11.27;;;10.70;99.90;;;;;;5053094;28;20185;-83
2022/12/21 04:18:14;;;;;;;17.03;10.93;;;10.50;99.90;;;;;;5053457;28;20173;-83
2022/12/21 04:20:39;;;;;;;15.43;10.47;;;10.70;99.90;;;;;;5070602;28;20174;-82
2022/12/21 04:28:34;;;;;;;15.00;8.97;;;10.30;99.90;;;;;;5062507;28;20593;-82
2022/12/21 04:31:03;;;;;;;13.33;8.17;;;10.40;99.90;;;;;;5055824;28;20165;-84
2022/12/21 04:33:30;;;;;;;12.90;8.30;;;10.20;99.90;;;;;;5052312;28;20571;-83
2022/12/21 04:38:43;;;;;;;14.93;8.23;;;10.20;99.90;;;;;;5067013;28;20220;-84
2022/12/21 04:41:09;;;;;;;12.03;7.70;;;10.20;99.90;;;;;;5051708;28;20177;-84
2022/12/21 04:43:36;;;;;;;13.13;8.30;;;10.40;99.90;;;;;;5052060;28;20185;-83
2022/12/21 04:46:08;;;;;;;14.00;7.43;;;10.40;99.90;;;;;;5052339;28;20176;-83
2022/12/21 04:48:37;;;;;;;14.47;9.07;;;10.50;99.90;;;;;;5060179;28;20192;-83
2022/12/21 04:51:08;;;;;;;14.47;7.67;;;10.40;99.90;;;;;;5062054;28;20238;-83
2022/12/21 04:53:34;;;;;;;17.97;8.47;;;10.40;99.90;;;;;;5053265;28;20197;-84
2022/12/21 04:55:59;;;;;;;12.60;7.83;;;10.30;99.90;;;;;;5053278;28;20168;-83
2022/12/21 04:58:25;;;;;;;11.73;7.80;;;10.30;99.90;;;;;;5051699;28;20187;-83
2022/12/21 05:00:51;;;;;;;15.67;8.03;;;10.30;99.90;;;;;;5053218;28;20173;-83
2022/12/21 05:03:19;;;;;;;15.63;7.93;;;10.30;99.90;;;;;;5051414;28;20176;-83
2022/12/21 05:05:45;;;;;;;13.97;7.40;;;10.40;99.90;;;;;;5051960;28;20176;-83
2022/12/21 05:08:12;;;;;;;11.47;6.87;;;10.40;99.90;;;;;;5053197;28;20175;-83
2022/12/21 05:10:38;;;;;;;12.57;7.00;;;10.50;99.90;;;;;;5051589;28;20652;-82
2022/12/21 05:13:04;;;;;;;11.63;6.87;;;10.60;99.90;;;;;;5051637;28;20212;-82
2022/12/21 05:15:30;;;;;;;11.40;6.67;;;10.60;99.90;;;;;;5055816;28;20276;-82
2022/12/21 05:17:57;;;;;;;13.77;8.03;;;10.70;99.90;;;;;;5055774;28;20226;-84
2022/12/21 05:20:23;;;;;;;14.63;7.60;;;10.60;99.90;;;;;;5056265;28;20169;-82
2022/12/21 05:22:48;;;;;;;12.30;7.33;;;10.70;99.90;;;;;;5054974;28;20193;-83
2022/12/21 05:25:14;;;;;;;11.47;7.50;;;10.80;99.90;;;;;;5056413;28;20169;-82
2022/12/21 05:27:41;;;;;;;15.13;8.07;;;10.80;99.90;;;;;;5055927;28;20555;-83
2022/12/21 05:30:07;;;;;;;15.10;8.10;;;10.80;99.90;;;;;;5056043;28;20204;-83
2022/12/21 05:32:33;;;;;;;14.70;7.70;;;10.70;99.90;;;;;;5057204;28;20655;-83
2022/12/21 05:34:58;;;;;;;16.73;8.20;;;10.60;99.90;;;;;;5054950;28;20284;-83
2022/12/21 05:37:26;;;;;;;14.20;8.77;;;10.60;99.90;;;;;;5053295;28;20181;-83
2022/12/21 05:39:51;;;;;;;17.80;8.10;;;10.60;99.90;;;;;;5054910;28;20173;-83
2022/12/21 05:42:17;;;;;;;15.43;8.23;;;10.30;99.90;;;;;;5059919;28;20179;-83
2022/12/21 05:44:43;;;;;;;13.97;8.20;;;10.10;99.90;;;;;;5059461;28;20271;-83
2022/12/21 05:47:08;;;;;;;13.17;7.70;;;10.20;99.90;;;;;;5062207;28;20173;-83
2022/12/21 05:49:36;;;;;;;17.87;8.20;;;10.20;99.90;;;;;;5060199;28;20668;-83
2022/12/21 05:52:02;;;;;;;13.50;7.60;;;9.90;99.90;;;;;;5058640;28;20196;-84
2022/12/21 05:54:28;;;;;;;14.93;7.37;;;9.90;99.90;;;;;;5057095;28;20205;-84
2022/12/21 05:56:54;;;;;;;17.93;7.50;;;9.90;99.90;;;;;;5056046;28;20195;-84
2022/12/21 05:59:22;;;;;;;15.73;8.07;;;9.90;99.90;;;;;;5056760;28;20538;-84
2022/12/21 06:01:48;;;;;;;14.93;8.63;;;9.90;99.90;;;;;;5055302;28;20165;-82
2022/12/21 06:04:13;;;;;;;13.70;8.10;;;10.00;99.90;;;;;;5055958;28;20551;-81
2022/12/21 06:06:39;;;;;;;16.63;8.93;;;10.00;99.90;;;;;;5060018;28;20203;-83
2022/12/21 06:09:05;;;;;;;15.77;8.27;;;10.00;99.90;;;;;;5059989;28;20619;-83
2022/12/21 06:11:32;;;;;;;14.53;8.37;;;9.90;99.90;;;;;;5061191;28;20189;-83
2022/12/21 06:13:57;;;;;;;18.67;9.63;;;9.90;99.90;;;;;;5066405;28;20629;-84
2022/12/21 06:16:25;;;;;;;17.30;9.10;;;9.90;99.90;;;;;;5067567;28;20173;-83
2022/12/21 06:18:52;;;;;;;17.83;10.07;;;10.00;99.90;;;;;;5077921;28;20157;-84
2022/12/21 06:21:18;;;;;;;17.83;10.80;;;10.00;99.90;;;;;;5077029;28;20188;-84
2022/12/21 06:23:47;;;;;;;17.93;9.70;;;9.80;99.90;;;;;;5069091;28;20172;-83
2022/12/21 06:26:41;;;;;;;17.93;9.37;;;9.70;99.90;;;;;;5058067;28;20166;-84
2022/12/21 06:29:07;;;;;;;15.03;9.47;;;9.70;99.90;;;;;;5056905;28;20176;-84
2022/12/21 06:31:33;;;;;;;16.37;9.63;;;9.60;99.90;;;;;;5059369;28;20181;-84
2022/12/21 06:33:58;;;;;;;17.47;9.57;;;9.80;99.90;;;;;;5069215;28;20224;-85
2022/12/21 06:36:24;;;;;;;15.60;8.93;;;9.80;99.90;;;;;;5078392;28;20169;-85
2022/12/21 06:38:50;;;;;;;17.63;9.73;;;9.80;99.90;;;;;;5076603;28;20196;-86
2022/12/21 06:41:17;;;;;;;18.93;10.53;;;9.70;99.90;;;;;;5068282;28;20248;-85
2022/12/21 06:43:46;;;;;;;20.13;10.63;;;9.90;99.90;;;;;;5062604;28;20197;-84
2022/12/21 06:46:15;;;;;;;18.50;10.67;;;9.80;99.90;;;;;;5058971;28;20170;-86
2022/12/21 06:48:41;;;;;;;17.97;9.97;;;9.80;99.90;;;;;;5059631;28;20541;-83
2022/12/21 06:51:12;;;;;;;19.30;10.63;;;9.90;99.90;;;;;;5057471;28;20236;-85
2022/12/21 06:53:40;;;;;;;20.13;11.97;;;9.80;99.90;;;;;;5072560;28;20205;-84
2022/12/21 06:56:12;;;;;;;19.30;11.50;;;9.70;99.90;;;;;;5078039;28;20165;-84
2022/12/21 06:58:39;;;;;;;22.17;12.53;;;9.70;99.90;;;;;;5070618;28;20167;-84
2022/12/21 07:01:32;;;;;;;18.47;12.33;;;9.80;99.90;;;;;;5057965;28;20169;-84
2022/12/21 07:04:02;;;;;;;20.47;11.80;;;9.80;99.90;;;;;;5055330;28;20172;-85
2022/12/21 07:06:30;;;;;;;19.43;11.47;;;9.70;99.90;;;;;;5056664;28;20165;-84
2022/12/21 07:08:56;;;;;;;18.23;11.80;;;9.80;99.90;;;;;;5054104;28;20169;-83
2022/12/21 07:11:25;;;;;;;16.57;11.23;;;9.70;99.90;;;;;;5054040;28;20272;-85
2022/12/21 07:13:54;;;;;;;17.87;11.97;;;9.70;99.90;;;;;;5055237;28;20201;-84
2022/12/21 07:16:20;;;;;;;19.67;11.60;;;9.70;99.90;;;;;;5053861;28;20544;-87
2022/12/21 07:18:46;;;;;;;24.67;11.40;;;9.60;99.90;;;;;;5054712;28;20165;-86
2022/12/21 07:21:16;;;;;;;22.83;11.83;;;9.60;99.90;;;;;;5036082;28;20277;-86
2022/12/21 07:23:42;;;;;;;19.00;11.57;;;9.60;99.90;;;;;;5053760;28;20219;-87
2022/12/21 07:26:14;;;;;;;19.63;11.33;;;9.50;99.90;;;;;;5053038;28;20184;-84
2022/12/21 07:28:43;;;;;;;18.40;11.73;;;9.50;99.90;;;;;;5054098;28;20180;-82
2022/12/21 07:31:13;;;;;;;20.57;11.93;;;9.50;99.90;;;;;;5052341;28;20200;-84
2022/12/21 07:33:40;;;;;;;24.57;13.77;;;9.50;99.90;;;;;;5055087;28;20240;-85
2022/12/21 07:36:08;;;;;;;23.20;12.87;;;9.50;99.90;;;;;;5059463;28;20547;-86
2022/12/21 07:38:43;;;;;;;20.20;11.97;;;9.50;99.90;;;;;;5057383;28;20188;-87
2022/12/21 07:41:12;;;;;;;23.77;13.10;;;9.50;99.90;;;;;;5055794;28;20173;-84
2022/12/21 07:43:39;;;;;;;24.43;13.27;;;9.40;99.90;;;;;;5056543;28;20196;-86
2022/12/21 07:46:06;;;;;;;21.30;13.27;;;9.50;99.90;;;;;;5058704;28;20209;-85
2022/12/21 07:48:33;;;;;;;27.77;15.13;;;9.40;99.90;;;;;;5056068;28;20176;-84
2022/12/21 07:50:59;;;;;;;27.37;15.47;;;9.40;99.90;;;;;;5064934;28;20192;-85
2022/12/21 07:53:25;;;;;;;25.57;14.00;;;9.40;99.90;;;;;;5065799;28;20692;-86
2022/12/21 07:55:50;;;;;;;24.83;13.87;;;9.40;99.90;;;;;;5062079;28;20172;-84
2022/12/21 07:58:16;;;;;;;24.70;13.63;;;9.20;99.90;;;;;;5063895;28;20184;-86
2022/12/21 08:00:43;;;;;;;25.93;14.17;;;9.30;99.90;;;;;;5058621;28;20241;-85
2022/12/21 08:03:09;;;;;;;22.07;13.73;;;9.30;99.90;;;;;;5057179;28;20181;-85
2022/12/21 08:05:34;;;;;;;26.73;14.00;;;9.20;99.90;;;;;;5040931;28;20169;-85
2022/12/21 08:08:02;;;;;;;28.27;14.10;;;9.30;99.90;;;;;;5057524;28;20176;-85
2022/12/21 08:10:28;;;;;;;26.93;15.27;;;9.40;99.90;;;;;;5055590;28;20191;-87
2022/12/21 08:12:54;;;;;;;27.00;15.13;;;9.40;99.90;;;;;;5058796;28;20177;-86
2022/12/21 08:15:23;;;;;;;26.73;14.93;;;9.40;99.90;;;;;;5056321;28;20215;-86
2022/12/21 08:17:51;;;;;;;26.13;15.10;;;9.30;99.90;;;;;;5056220;28;20546;-88
2022/12/21 08:20:18;;;;;;;24.43;13.13;;;9.40;99.90;;;;;;5065390;28;20189;-82
2022/12/21 08:22:44;;;;;;;24.07;14.63;;;9.40;99.90;;;;;;5058544;28;20185;-83
2022/12/21 08:25:10;;;;;;;26.30;13.90;;;9.40;99.90;;;;;;5055162;28;20231;-87
2022/12/21 08:27:36;;;;;;;22.57;12.60;;;9.30;99.90;;;;;;5037917;28;20264;-86
2022/12/21 08:30:04;;;;;;;25.40;13.97;;;9.50;99.90;;;;;;5055315;28;20189;-85
2022/12/21 08:32:31;;;;;;;24.47;13.07;;;9.40;99.90;;;;;;5054448;28;20184;-85
2022/12/21 08:34:56;;;;;;;21.33;13.23;;;9.50;99.90;;;;;;5054801;28;20694;-85
2022/12/21 08:37:22;;;;;;;22.77;12.90;;;9.40;99.90;;;;;;5058803;28;20263;-85
2022/12/21 08:40:20;;;;;;;22.20;13.30;;;9.50;99.90;;;;;;5058040;28;20185;-92
2022/12/21 08:42:53;;;;;;;23.70;13.53;;;9.30;99.90;;;;;;5038226;28;20194;-89
2022/12/21 08:45:55;;;;;;;24.10;12.93;;;9.50;99.90;;;;;;5029296;28;20208;-90
2022/12/21 08:51:11;;;;;;;25.13;13.10;;;9.50;99.90;;;;;;5856563;23;20251;-93
2022/12/21 08:54:34;;;;;;;20.27;12.53;;;9.30;99.90;;;;;;5070051;28;20686;-92
2022/12/21 08:57:32;;;;;;;21.37;12.43;;;9.50;99.90;;;;;;5020238;28;20206;-92
2022/12/21 09:00:37;;;;;;;;;;;;;;;;;;;;;
2022/12/21 09:03:35;;;;;;;27.10;13.17;;;9.80;99.90;;;;;;5051336;28;20201;-91
2022/12/21 09:06:25;;;;;;;20.07;11.93;;;9.80;99.90;;;;;;5033311;28;20208;-92
2022/12/21 09:22:55;;;;;;;;;;;;;;;;;;;;;
2022/12/21 09:28:38;;;;;;;;;;;;;;;;;;;;;
2022/12/21 10:15:54;;;;;;;13.80;9.40;;;9.60;99.90;;;;;;5214378;23;20472;-89
2022/12/21 10:19:08;;;;;;;13.07;8.93;;;9.70;99.90;;;;;;5023830;28;20209;-89
2022/12/21 10:22:22;;;;;;;12.97;9.70;;;9.70;99.90;;;;;;4959904;28;20183;-90
2022/12/21 10:24:58;;;;;;;16.57;9.87;;;9.70;99.90;;;;;;4966904;28;20698;-86
2022/12/21 10:27:42;;;;;;;15.17;10.10;;;9.70;99.90;;;;;;5048812;28;20205;-88
2022/12/21 10:30:16;;;;;;;13.20;8.87;;;9.70;99.90;;;;;;5036534;28;20202;-84
2022/12/21 10:33:07;;;;;;;15.77;9.90;;;9.70;99.90;;;;;;5030817;28;20182;-86
2022/12/21 10:35:39;;;;;;;18.70;12.60;;;9.80;99.90;;;;;;5025720;28;20197;-85
2022/12/21 10:38:27;;;;;;;12.67;10.03;;;10.00;99.90;;;;;;5030228;28;20285;-87
2022/12/21 10:40:55;;;;;;;16.97;11.37;;;9.60;99.90;;;;;;5034719;28;20186;-85
2022/12/21 10:43:40;;;;;;;16.40;10.33;;;9.70;99.90;;;;;;5033682;28;20190;-85
2022/12/21 10:46:33;;;;;;;13.80;11.13;;;9.70;99.90;;;;;;5028438;28;20178;-86
2022/12/21 10:49:36;;;;;;;16.40;10.40;;;9.60;99.90;;;;;;5024181;28;20186;-86
2022/12/21 10:52:45;;;;;;;13.90;10.70;;;9.40;99.90;;;;;;4994939;28;20179;-85
2022/12/21 10:55:30;;;;;;;13.20;10.10;;;9.70;99.90;;;;;;4981988;28;20269;-85
2022/12/21 10:58:23;;;;;;;14.87;9.97;;;9.70;99.90;;;;;;5003444;28;20243;-84
2022/12/21 11:01:24;;;;;;;13.17;10.30;;;9.90;99.90;;;;;;4982774;28;20176;-86
2022/12/21 11:04:11;;;;;;;13.70;10.47;;;9.70;99.90;;;;;;4982190;28;20250;-86
2022/12/21 11:07:14;;;;;;;15.70;11.03;;;9.80;99.90;;;;;;4982845;28;20539;-86
2022/12/21 11:09:40;;;;;;;17.37;9.13;;;9.60;99.90;;;;;;4985370;28;20239;-85
2022/12/21 11:12:28;;;;;;;14.73;9.30;;;9.90;99.90;;;;;;4986213;28;20183;-87
2022/12/21 11:15:10;;;;;;;14.40;9.53;;;9.90;99.90;;;;;;4985391;28;20322;-86
2022/12/21 11:17:50;;;;;;;13.60;9.27;;;9.90;99.90;;;;;;4994533;28;20180;-86
2022/12/21 11:20:57;;;;;;;13.97;8.77;;;10.00;99.90;;;;;;4994312;28;20172;-86
2022/12/21 11:26:51;;;;;;;14.00;8.67;;;10.00;99.90;;;;;;5611010;23;20320;-85
2022/12/21 11:30:13;;;;;;;12.50;8.80;;;9.90;99.90;;;;;;5033723;28;20221;-87
2022/12/21 11:33:18;;;;;;;12.13;8.73;;;10.00;99.90;;;;;;5033613;28;20662;-88
2022/12/21 11:36:23;;;;;;;16.23;8.33;;;10.00;99.90;;;;;;5033692;28;20217;-86
2022/12/21 11:39:21;;;;;;;12.13;7.27;;;9.90;99.90;;;;;;5024578;28;20175;-86
2022/12/21 11:41:54;;;;;;;12.93;6.20;;;9.70;99.90;;;;;;4999754;28;20185;-88
2022/12/21 11:44:31;;;;;;;12.93;7.20;;;9.80;99.90;;;;;;5019988;28;20238;-87
2022/12/21 11:47:21;;;;;;;10.83;6.90;;;9.90;99.90;;;;;;5025312;28;20438;-87
2022/12/21 11:50:17;;;;;;;13.33;7.43;;;9.90;99.90;;;;;;5027550;28;20720;-88
2022/12/21 11:53:04;;;;;;;11.57;7.13;;;10.00;99.90;;;;;;5025800;28;20174;-87
2022/12/21 11:56:04;;;;;;;10.50;7.00;;;10.10;99.90;;;;;;5024883;28;20225;-89
2022/12/21 11:59:09;;;;;;;13.43;7.43;;;10.10;99.90;;;;;;5028904;28;20178;-88
2022/12/21 12:02:14;;;;;;;11.73;7.87;;;10.10;99.90;;;;;;4979011;28;20180;-89
2022/12/21 12:04:53;;;;;;;9.90;6.93;;;10.10;99.90;;;;;;4973977;28;20688;-86
2022/12/21 12:08:00;;;;;;;;;;;;;;;;;;;;;
2022/12/21 12:14:56;;;;;;;20.23;11.23;;;10.20;99.90;;;;;;5020535;28;20213;-87
2022/12/21 12:18:13;;;;;;;;;;;;;;;;;;;;;
2022/12/21 12:21:24;;;;;;;15.27;8.97;;;10.40;99.90;;;;;;4995082;28;20205;-90
2022/12/21 12:24:43;;;;;;;13.03;6.77;;;10.20;99.90;;;;;;5026759;28;20205;-85
2022/12/21 12:27:51;;;;;;;16.57;8.10;;;10.20;99.90;;;;;;5011764;28;20201;-88
2022/12/21 12:31:24;;;;;;;11.70;7.10;;;10.20;99.90;;;;;;5033494;28;20151;-90
2022/12/21 12:34:21;;;;;;;14.80;7.63;;;10.20;99.90;;;;;;4961038;29;20232;-86
2022/12/21 12:37:31;;;;;;;;;;;;;;;;;;;;;
2022/12/21 12:40:47;;;;;;;11.63;5.97;;;10.30;99.90;;;;;;4966151;29;20199;-89
2022/12/21 12:44:00;;;;;;;10.23;5.43;;;10.30;99.90;;;;;;4968300;29;20220;-88
2022/12/21 12:46:49;;;;;;;10.00;5.47;;;10.00;99.90;;;;;;4961587;28;20191;-88
2022/12/21 12:49:51;;;;;;;9.57;5.20;;;10.20;99.90;;;;;;4949876;29;20196;-88
2022/12/21 12:53:06;;;;;;;9.90;4.77;;;10.20;99.90;;;;;;5008790;28;20190;-86
2022/12/21 12:55:57;;;;;;;13.23;5.70;;;10.30;99.90;;;;;;5026429;28;20217;-88
2022/12/21 12:58:33;;;;;;;6.83;4.50;;;10.40;99.90;;;;;;5028745;28;20178;-86
2022/12/21 13:01:34;;;;;;;10.60;4.77;;;10.40;99.90;;;;;;5030315;28;20170;-88
2022/12/21 13:04:31;;;;;;;8.93;4.53;;;10.40;99.90;;;;;;5019636;28;20273;-86
2022/12/21 13:07:09;;;;;;;;;;;;;;;;;;;;;
2022/12/21 13:09:59;;;;;;;9.57;4.80;;;10.40;99.90;;;;;;5021814;28;20249;-87
2022/12/21 13:12:45;;;;;;;8.10;4.50;;;10.60;99.90;;;;;;5020060;28;20180;-87
2022/12/21 13:15:18;;;;;;;9.93;4.30;;;10.50;99.90;;;;;;5019844;28;20255;-89
2022/12/21 13:18:06;;;;;;;7.33;4.23;;;10.50;99.90;;;;;;5019331;28;20190;-88
2022/12/21 13:20:36;;;;;;;13.67;5.20;;;10.60;99.90;;;;;;5042581;28;20221;-87
2022/12/21 13:23:40;;;;;;;13.77;5.37;;;10.60;99.90;;;;;;5037042;28;20169;-88
2022/12/21 13:26:19;;;;;;;8.57;4.70;;;10.60;99.90;;;;;;5053689;28;20198;-88
2022/12/21 13:29:17;;;;;;;7.93;4.83;;;10.60;99.90;;;;;;5007867;28;20182;-87
2022/12/21 13:31:52;;;;;;;7.67;3.50;;;10.60;99.90;;;;;;5011383;28;20175;-88
2022/12/21 13:34:25;;;;;;;7.20;3.70;;;10.60;99.90;;;;;;5026344;28;20205;-86
2022/12/21 13:36:52;;;;;;;5.73;3.73;;;10.60;99.90;;;;;;5021152;28;20202;-88
2022/12/21 13:39:31;;;;;;;8.87;4.13;;;10.50;99.90;;;;;;5026575;28;20305;-89
2022/12/21 13:42:14;;;;;;;6.30;4.00;;;10.60;99.90;;;;;;5033768;28;20170;-86
2022/12/21 13:44:45;;;;;;;8.20;3.63;;;10.60;99.90;;;;;;5028924;28;20649;-86
2022/12/21 13:47:14;;;;;;;10.13;3.67;;;10.50;99.90;;;;;;5018639;28;20265;-87
2022/12/21 13:50:05;;;;;;;8.07;3.73;;;10.70;99.90;;;;;;5014381;28;20653;-87
2022/12/21 13:53:39;;;;;;;6.30;3.73;;;10.60;99.90;;;;;;5025652;28;20229;-86
2022/12/21 13:56:17;;;;;;;7.37;4.10;;;10.50;99.90;;;;;;4942794;29;20207;-86
2022/12/21 13:58:55;;;;;;;7.80;4.43;;;10.60;99.90;;;;;;4938985;29;20188;-88
2022/12/21 14:02:03;;;;;;;8.60;4.20;;;10.60;99.90;;;;;;4989635;28;20199;-88
2022/12/21 14:04:47;;;;;;;6.87;3.50;;;10.60;99.90;;;;;;4942820;29;20191;-88
2022/12/21 14:07:26;;;;;;;8.43;4.00;;;10.50;99.90;;;;;;4951870;28;20315;-87
2022/12/21 14:10:22;;;;;;;8.83;3.90;;;10.50;99.90;;;;;;4998694;28;20304;-85
2022/12/21 14:12:54;;;;;;;8.07;4.00;;;10.50;99.90;;;;;;5009461;28;20202;-88
2022/12/21 14:15:59;;;;;;;11.30;4.40;;;10.50;99.90;;;;;;5016257;28;20313;-91
2022/12/21 14:19:05;;;;;;;6.30;3.20;;;10.50;99.90;;;;;;5015054;28;20182;-91
2022/12/21 14:22:23;;;;;;;;;;;;;;;;;;;;;
2022/12/21 14:25:46;;;;;;;6.90;4.00;;;10.50;99.90;;;;;;4955621;29;20185;-92
2022/12/21 14:32:39;;;;;;;8.80;3.80;;;10.60;99.90;;;;;;4937315;29;20244;-91
2022/12/21 14:36:06;;;;;;;7.13;3.50;;;10.60;99.90;;;;;;4999394;28;20263;-91
2022/12/21 14:39:34;;;;;;;5.93;3.50;;;10.60;99.90;;;;;;5000281;28;20186;-91
2022/12/21 14:42:40;;;;;;;7.70;3.20;;;10.60;99.90;;;;;;4931202;29;20178;-91
2022/12/21 14:45:29;;;;;;;7.37;3.33;;;10.60;99.90;;;;;;4921633;29;20162;-91
2022/12/21 14:48:54;;;;;;;;;;;;;;;;;;;;;
2022/12/21 14:52:03;;;;;;;8.83;3.83;;;10.60;99.90;;;;;;4935040;29;20213;-91
2022/12/21 14:55:20;;;;;;;6.93;3.60;;;10.60;99.90;;;;;;4937516;29;20621;-91
2022/12/21 14:58:13;;;;;;;;;;;;;;;;;;;;;
2022/12/21 15:01:07;;;;;;;7.63;3.70;;;10.70;99.90;;;;;;4914120;29;20198;-91
2022/12/21 15:04:34;;;;;;;6.73;3.47;;;10.80;99.90;;;;;;4923245;29;20192;-91
2022/12/21 15:07:37;;;;;;;8.67;3.73;;;10.80;99.90;;;;;;4902289;29;20211;-91
2022/12/21 15:24:57;;;;;;;;;;;;;;;;;;;;;
2022/12/21 15:28:03;;;;;;;7.40;3.40;;;10.70;99.90;;;;;;4880033;29;20667;-91
2022/12/21 15:31:29;;;;;;;;;;;;;;;;;;;;;
2022/12/21 15:38:01;;;;;;;5.27;3.10;;;10.70;99.90;;;;;;4836896;29;20194;-92
2022/12/21 15:41:52;;;;;;;;;;;;;;;;;;;;;
2022/12/21 15:44:56;;;;;;;6.60;3.40;;;10.60;99.90;;;;;;4887379;29;20655;-93